BAW334H EGLL-LTFM
Flight info
| Callsign | BAW334H |
|---|---|
| Flight time | 3h 5m |
| Altitude | 41000 |
| Route | DET L6 DVR UL9 KONAN DCT KOK UL607 FERDI DCT MATUG DCT AMASI DCT BOMBI DCT TENLO DCT DEXIT DCT BEGLA DCT TEGRI DCT NEKUL DCT LAMIT DCT RASUB DCT BULEN DCT BUVAK DCT RIXEN |
| Aircraft | A388/J-SADE2E3FGHIJ3J4J5M1RWXY/LB1D1 |
Departure
| Time | 2026-05-05 13:23 |
|---|---|
| Airport | London Heathrow Airport (EGLL) |
Arrival
| Time | 2026-05-05 16:28 |
|---|---|
| Airport | İstanbul Airport (LTFM) |
| Time | Latitude | Longitude | Altitude | Speed | Heading |
|---|---|---|---|---|---|
| 2026-05-05 13:21 | 51.46478 | -0.48398 | 95 ft | 0 kts | 90° |
| 2026-05-05 13:22 | 51.46478 | -0.48382 | 95 ft | 4 kts | 90° |
| 2026-05-05 13:22 | 51.46478 | -0.48371 | 95 ft | 8 kts | 90° |
| 2026-05-05 13:22 | 51.46480 | -0.47745 | 91 ft | 107 kts | 90° |
| 2026-05-05 13:22 | 51.46485 | -0.46149 | 137 ft | 172 kts | 90° |
| 2026-05-05 13:23 | 51.46490 | -0.44171 | 816 ft | 178 kts | 90° |
| 2026-05-05 13:23 | 51.46456 | -0.42208 | 1777 ft | 173 kts | 94° |
| 2026-05-05 13:23 | 51.46266 | -0.40232 | 2399 ft | 186 kts | 107° |
| 2026-05-05 13:23 | 51.45687 | -0.38324 | 2834 ft | 197 kts | 124° |
| 2026-05-05 13:24 | 51.44860 | -0.36478 | 3117 ft | 211 kts | 120° |
| 2026-05-05 13:24 | 51.44245 | -0.34277 | 3263 ft | 226 kts | 112° |
| 2026-05-05 13:24 | 51.43669 | -0.31766 | 3530 ft | 252 kts | 109° |
| 2026-05-05 13:24 | 51.43094 | -0.29007 | 4165 ft | 265 kts | 108° |
| 2026-05-05 13:25 | 51.42649 | -0.26117 | 4959 ft | 268 kts | 102° |
| 2026-05-05 13:25 | 51.42270 | -0.23210 | 5706 ft | 272 kts | 102° |
| 2026-05-05 13:25 | 51.41867 | -0.20205 | 6574 ft | 275 kts | 102° |
| 2026-05-05 13:25 | 51.41454 | -0.17191 | 7519 ft | 278 kts | 102° |
| 2026-05-05 13:26 | 51.41034 | -0.14135 | 8415 ft | 282 kts | 102° |
| 2026-05-05 13:26 | 51.40600 | -0.11037 | 9287 ft | 286 kts | 103° |
| 2026-05-05 13:26 | 51.40158 | -0.07906 | 10143 ft | 290 kts | 103° |
| 2026-05-05 13:26 | 51.39704 | -0.04704 | 10592 ft | 309 kts | 103° |
| 2026-05-05 13:27 | 51.39209 | -0.01214 | 10823 ft | 331 kts | 103° |
| 2026-05-05 13:27 | 51.38690 | 0.02436 | 11273 ft | 344 kts | 103° |
| 2026-05-05 13:27 | 51.38155 | 0.06202 | 12024 ft | 347 kts | 103° |
| 2026-05-05 13:27 | 51.37620 | 0.09955 | 12725 ft | 351 kts | 103° |
| 2026-05-05 13:28 | 51.37066 | 0.13797 | 13427 ft | 355 kts | 103° |
| 2026-05-05 13:28 | 51.36504 | 0.17671 | 14122 ft | 358 kts | 103° |
| 2026-05-05 13:28 | 51.35935 | 0.21590 | 14813 ft | 362 kts | 103° |
| 2026-05-05 13:28 | 51.35375 | 0.25487 | 15453 ft | 366 kts | 103° |
| 2026-05-05 13:29 | 51.34799 | 0.29494 | 16106 ft | 369 kts | 103° |
| 2026-05-05 13:29 | 51.34221 | 0.33514 | 16734 ft | 373 kts | 103° |
| 2026-05-05 13:29 | 51.33632 | 0.37589 | 17329 ft | 376 kts | 103° |
| 2026-05-05 13:29 | 51.33045 | 0.41637 | 17917 ft | 379 kts | 103° |
| 2026-05-05 13:30 | 51.32443 | 0.45777 | 18519 ft | 382 kts | 103° |
| 2026-05-05 13:30 | 51.31835 | 0.49945 | 19060 ft | 386 kts | 103° |
| 2026-05-05 13:30 | 51.31219 | 0.54154 | 19585 ft | 389 kts | 103° |
| 2026-05-05 13:30 | 51.30604 | 0.58347 | 20098 ft | 393 kts | 103° |
| 2026-05-05 13:31 | 51.29898 | 0.62544 | 20606 ft | 396 kts | 106° |
| 2026-05-05 13:31 | 51.29105 | 0.66848 | 21119 ft | 398 kts | 106° |
| 2026-05-05 13:31 | 51.28330 | 0.71075 | 21624 ft | 401 kts | 106° |
| 2026-05-05 13:31 | 51.27542 | 0.75380 | 22091 ft | 404 kts | 106° |
| 2026-05-05 13:32 | 51.26748 | 0.79706 | 22577 ft | 407 kts | 106° |
| 2026-05-05 13:32 | 51.25956 | 0.84015 | 23044 ft | 410 kts | 106° |
| 2026-05-05 13:32 | 51.25144 | 0.88421 | 23499 ft | 413 kts | 106° |
| 2026-05-05 13:32 | 51.24326 | 0.92846 | 23936 ft | 416 kts | 107° |
| 2026-05-05 13:33 | 51.23509 | 0.97249 | 24397 ft | 418 kts | 107° |
| 2026-05-05 13:33 | 51.22675 | 1.01741 | 24819 ft | 422 kts | 107° |
| 2026-05-05 13:33 | 51.21836 | 1.06247 | 25266 ft | 424 kts | 107° |
| 2026-05-05 13:33 | 51.20999 | 1.10734 | 25709 ft | 427 kts | 107° |
| 2026-05-05 13:34 | 51.20141 | 1.15318 | 26189 ft | 430 kts | 107° |
| 2026-05-05 13:34 | 51.19276 | 1.19930 | 26652 ft | 433 kts | 107° |
| 2026-05-05 13:34 | 51.18415 | 1.24510 | 27125 ft | 437 kts | 107° |
| 2026-05-05 13:34 | 51.17534 | 1.29181 | 27610 ft | 440 kts | 107° |
| 2026-05-05 13:35 | 51.16685 | 1.33826 | 28065 ft | 443 kts | 104° |
| 2026-05-05 13:35 | 51.16124 | 1.38692 | 28545 ft | 446 kts | 96° |
| 2026-05-05 13:35 | 51.15881 | 1.43648 | 29026 ft | 449 kts | 94° |
| 2026-05-05 13:35 | 51.15661 | 1.48581 | 29469 ft | 452 kts | 94° |
| 2026-05-05 13:36 | 51.15422 | 1.53616 | 29933 ft | 455 kts | 94° |
| 2026-05-05 13:36 | 51.15176 | 1.58674 | 30397 ft | 459 kts | 94° |
| 2026-05-05 13:36 | 51.14928 | 1.63708 | 30839 ft | 462 kts | 94° |
| 2026-05-05 13:36 | 51.14674 | 1.68824 | 31280 ft | 465 kts | 94° |
| 2026-05-05 13:37 | 51.14414 | 1.74000 | 31714 ft | 468 kts | 95° |
| 2026-05-05 13:37 | 51.14154 | 1.79152 | 32138 ft | 471 kts | 95° |
| 2026-05-05 13:37 | 51.13888 | 1.84381 | 32545 ft | 474 kts | 95° |
| 2026-05-05 13:37 | 51.13617 | 1.89657 | 32955 ft | 477 kts | 95° |
| 2026-05-05 13:38 | 51.13346 | 1.94888 | 33358 ft | 480 kts | 95° |
| 2026-05-05 13:38 | 51.13067 | 2.00234 | 33748 ft | 483 kts | 95° |
| 2026-05-05 13:38 | 51.12784 | 2.05608 | 34144 ft | 486 kts | 95° |
| 2026-05-05 13:38 | 51.12499 | 2.10943 | 34539 ft | 489 kts | 95° |
| 2026-05-05 13:39 | 51.12209 | 2.16359 | 35032 ft | 489 kts | 95° |
| 2026-05-05 13:39 | 51.11916 | 2.21763 | 35573 ft | 488 kts | 95° |
| 2026-05-05 13:39 | 51.11625 | 2.27087 | 36098 ft | 487 kts | 95° |
| 2026-05-05 13:39 | 51.11328 | 2.32468 | 36587 ft | 486 kts | 95° |
| 2026-05-05 13:40 | 51.11030 | 2.37837 | 37027 ft | 487 kts | 95° |
| 2026-05-05 13:40 | 51.10728 | 2.43224 | 37464 ft | 487 kts | 95° |
| 2026-05-05 13:40 | 51.10427 | 2.48546 | 37890 ft | 486 kts | 95° |
| 2026-05-05 13:40 | 51.10121 | 2.53927 | 38303 ft | 486 kts | 95° |
| 2026-05-05 13:41 | 51.09812 | 2.59298 | 38708 ft | 486 kts | 95° |
| 2026-05-05 13:41 | 51.09388 | 2.64586 | 39086 ft | 487 kts | 100° |
| 2026-05-05 13:41 | 51.08641 | 2.69875 | 39483 ft | 486 kts | 105° |
| 2026-05-05 13:41 | 51.07685 | 2.75044 | 39849 ft | 486 kts | 106° |
| 2026-05-05 13:42 | 51.06749 | 2.80170 | 40207 ft | 486 kts | 106° |
| 2026-05-05 13:42 | 51.05821 | 2.85294 | 40555 ft | 486 kts | 106° |
| 2026-05-05 13:42 | 51.04880 | 2.90480 | 40899 ft | 486 kts | 106° |
| 2026-05-05 13:42 | 51.03931 | 2.95693 | 41002 ft | 492 kts | 106° |
| 2026-05-05 13:43 | 51.02025 | 3.06096 | 41000 ft | 488 kts | 106° |
| 2026-05-05 13:43 | 51.00111 | 3.16484 | 40996 ft | 490 kts | 106° |
| 2026-05-05 13:44 | 50.98189 | 3.26837 | 41001 ft | 490 kts | 107° |
| 2026-05-05 13:44 | 50.96259 | 3.37180 | 41000 ft | 490 kts | 107° |
| 2026-05-05 13:45 | 50.94305 | 3.47600 | 41000 ft | 490 kts | 107° |
| 2026-05-05 13:45 | 50.92358 | 3.57919 | 40997 ft | 490 kts | 107° |
| 2026-05-05 13:46 | 50.90422 | 3.68306 | 40995 ft | 490 kts | 105° |
| 2026-05-05 13:46 | 50.88694 | 3.78690 | 40993 ft | 490 kts | 104° |
| 2026-05-05 13:47 | 50.86961 | 3.89092 | 40995 ft | 490 kts | 105° |
| 2026-05-05 13:47 | 50.85180 | 3.99551 | 40997 ft | 490 kts | 105° |
| 2026-05-05 13:48 | 50.83396 | 4.09919 | 40998 ft | 490 kts | 105° |
| 2026-05-05 13:48 | 50.81590 | 4.20359 | 41002 ft | 490 kts | 105° |
| 2026-05-05 13:49 | 50.79786 | 4.30719 | 41006 ft | 491 kts | 105° |
| 2026-05-05 13:49 | 50.77973 | 4.41078 | 40998 ft | 491 kts | 105° |
| 2026-05-05 13:50 | 50.76136 | 4.51510 | 41000 ft | 491 kts | 105° |
| 2026-05-05 13:50 | 50.74303 | 4.61863 | 41003 ft | 491 kts | 105° |
| 2026-05-05 13:51 | 50.72449 | 4.72267 | 41003 ft | 491 kts | 105° |
| 2026-05-05 13:51 | 50.70597 | 4.82605 | 40997 ft | 491 kts | 106° |
| 2026-05-05 13:52 | 50.68728 | 4.92978 | 41000 ft | 491 kts | 106° |
| 2026-05-05 13:52 | 50.66855 | 5.03313 | 40998 ft | 491 kts | 106° |
| 2026-05-05 13:53 | 50.64979 | 5.13609 | 40999 ft | 491 kts | 106° |
| 2026-05-05 13:53 | 50.63076 | 5.23991 | 40997 ft | 491 kts | 106° |
| 2026-05-05 13:54 | 50.61176 | 5.34295 | 40997 ft | 491 kts | 106° |
| 2026-05-05 13:54 | 50.59271 | 5.44574 | 40999 ft | 491 kts | 106° |
| 2026-05-05 13:55 | 50.57352 | 5.54870 | 40995 ft | 491 kts | 106° |
| 2026-05-05 13:55 | 50.55413 | 5.65216 | 40994 ft | 491 kts | 106° |
| 2026-05-05 13:56 | 50.53480 | 5.75477 | 40994 ft | 491 kts | 107° |
| 2026-05-05 13:56 | 50.51522 | 5.85806 | 40993 ft | 491 kts | 107° |
| 2026-05-05 13:57 | 50.49564 | 5.96081 | 40992 ft | 492 kts | 107° |
| 2026-05-05 13:57 | 50.47596 | 6.06353 | 40981 ft | 492 kts | 107° |
| 2026-05-05 13:58 | 50.45622 | 6.16607 | 40985 ft | 492 kts | 107° |
| 2026-05-05 13:58 | 50.43624 | 6.26922 | 40985 ft | 493 kts | 107° |
| 2026-05-05 13:59 | 50.40740 | 6.42365 | 40990 ft | 493 kts | 102° |
| 2026-05-05 14:00 | 50.38938 | 6.56405 | 41000 ft | 494 kts | 101° |
| 2026-05-05 14:00 | 50.37519 | 6.66963 | 41009 ft | 495 kts | 102° |
| 2026-05-05 14:01 | 50.36050 | 6.77481 | 41019 ft | 495 kts | 102° |
| 2026-05-05 14:01 | 50.34561 | 6.88020 | 41008 ft | 495 kts | 102° |
| 2026-05-05 14:02 | 50.33068 | 6.98518 | 41012 ft | 495 kts | 102° |
| 2026-05-05 14:02 | 50.31559 | 7.09062 | 41014 ft | 495 kts | 103° |
| 2026-05-05 14:03 | 50.30051 | 7.19525 | 41013 ft | 494 kts | 103° |
| 2026-05-05 14:03 | 50.28525 | 7.30038 | 41011 ft | 494 kts | 103° |
| 2026-05-05 14:04 | 50.27001 | 7.40468 | 41009 ft | 494 kts | 103° |
| 2026-05-05 14:04 | 50.25470 | 7.50880 | 41005 ft | 493 kts | 103° |
| 2026-05-05 14:05 | 50.23921 | 7.61340 | 41007 ft | 492 kts | 103° |
| 2026-05-05 14:05 | 50.22376 | 7.71731 | 40994 ft | 492 kts | 103° |
| 2026-05-05 14:06 | 50.20831 | 7.82061 | 40995 ft | 491 kts | 103° |
| 2026-05-05 14:06 | 50.19265 | 7.92460 | 40991 ft | 491 kts | 103° |
| 2026-05-05 14:07 | 50.17685 | 8.02886 | 40984 ft | 491 kts | 103° |
| 2026-05-05 14:07 | 50.16106 | 8.13234 | 40988 ft | 492 kts | 103° |
| 2026-05-05 14:08 | 50.14521 | 8.23552 | 40988 ft | 492 kts | 103° |
| 2026-05-05 14:08 | 50.12917 | 8.33935 | 41003 ft | 492 kts | 103° |
| 2026-05-05 14:09 | 50.11380 | 8.43813 | 41009 ft | 493 kts | 103° |
| 2026-05-05 14:09 | 50.09758 | 8.54183 | 41013 ft | 493 kts | 104° |
| 2026-05-05 14:10 | 50.08130 | 8.64520 | 41029 ft | 494 kts | 104° |
| 2026-05-05 14:10 | 50.06489 | 8.74871 | 41027 ft | 493 kts | 104° |
| 2026-05-05 14:11 | 50.04549 | 8.85078 | 41010 ft | 492 kts | 110° |
| 2026-05-05 14:11 | 50.02247 | 8.95177 | 41006 ft | 492 kts | 109° |
| 2026-05-05 14:12 | 49.99992 | 9.05166 | 41002 ft | 491 kts | 109° |
| 2026-05-05 14:12 | 49.97728 | 9.15131 | 41000 ft | 491 kts | 109° |
| 2026-05-05 14:13 | 49.95436 | 9.25163 | 40993 ft | 490 kts | 109° |
| 2026-05-05 14:13 | 49.93158 | 9.35084 | 40978 ft | 490 kts | 110° |
| 2026-05-05 14:14 | 49.90847 | 9.45098 | 40975 ft | 490 kts | 110° |
| 2026-05-05 14:14 | 49.88548 | 9.55018 | 40983 ft | 491 kts | 110° |
| 2026-05-05 14:15 | 49.86221 | 9.65010 | 41000 ft | 491 kts | 110° |
| 2026-05-05 14:15 | 49.83896 | 9.74947 | 40998 ft | 492 kts | 110° |
| 2026-05-05 14:16 | 49.81558 | 9.84897 | 41001 ft | 493 kts | 110° |
| 2026-05-05 14:16 | 49.79206 | 9.94858 | 41013 ft | 493 kts | 110° |
| 2026-05-05 14:17 | 49.76832 | 10.04863 | 41008 ft | 493 kts | 110° |
| 2026-05-05 14:17 | 49.74468 | 10.14784 | 41008 ft | 493 kts | 110° |
| 2026-05-05 14:18 | 49.72094 | 10.24703 | 41010 ft | 493 kts | 110° |
| 2026-05-05 14:18 | 49.69702 | 10.34650 | 41000 ft | 492 kts | 110° |
| 2026-05-05 14:19 | 49.67314 | 10.44535 | 40999 ft | 492 kts | 110° |
| 2026-05-05 14:19 | 49.64917 | 10.54414 | 40994 ft | 492 kts | 110° |
| 2026-05-05 14:20 | 49.62512 | 10.64278 | 40997 ft | 492 kts | 110° |
| 2026-05-05 14:20 | 49.60089 | 10.74173 | 40996 ft | 492 kts | 111° |
| 2026-05-05 14:21 | 49.57673 | 10.83999 | 40998 ft | 492 kts | 111° |
| 2026-05-05 14:21 | 49.55228 | 10.93899 | 41001 ft | 492 kts | 111° |
| 2026-05-05 14:22 | 49.52793 | 11.03707 | 41000 ft | 492 kts | 111° |
| 2026-05-05 14:22 | 49.50151 | 11.13406 | 40999 ft | 492 kts | 112° |
| 2026-05-05 14:23 | 49.47513 | 11.23153 | 41001 ft | 492 kts | 112° |
| 2026-05-05 14:23 | 49.44875 | 11.32845 | 40998 ft | 492 kts | 113° |
| 2026-05-05 14:24 | 49.42217 | 11.42531 | 40991 ft | 493 kts | 113° |
| 2026-05-05 14:24 | 49.39538 | 11.52246 | 40989 ft | 493 kts | 113° |
| 2026-05-05 14:25 | 49.36873 | 11.61873 | 40992 ft | 493 kts | 113° |
| 2026-05-05 14:25 | 49.34166 | 11.71608 | 41001 ft | 493 kts | 113° |
| 2026-05-05 14:26 | 49.31477 | 11.81247 | 41002 ft | 494 kts | 113° |
| 2026-05-05 14:26 | 49.28770 | 11.90905 | 41006 ft | 494 kts | 113° |
| 2026-05-05 14:27 | 49.26044 | 12.00591 | 41008 ft | 494 kts | 113° |
| 2026-05-05 14:27 | 49.23327 | 12.10208 | 41011 ft | 494 kts | 113° |
| 2026-05-05 14:28 | 49.20582 | 12.19883 | 41004 ft | 494 kts | 114° |
| 2026-05-05 14:28 | 49.17847 | 12.29485 | 41006 ft | 493 kts | 114° |
| 2026-05-05 14:29 | 49.15106 | 12.39072 | 40996 ft | 493 kts | 114° |
| 2026-05-05 14:29 | 49.12357 | 12.48645 | 40995 ft | 493 kts | 114° |
| 2026-05-05 14:30 | 49.09577 | 12.58288 | 40990 ft | 493 kts | 114° |
| 2026-05-05 14:30 | 49.06820 | 12.67814 | 40999 ft | 493 kts | 114° |
| 2026-05-05 14:31 | 49.04048 | 12.77355 | 40985 ft | 493 kts | 114° |
| 2026-05-05 14:31 | 49.01268 | 12.86884 | 40986 ft | 493 kts | 114° |
| 2026-05-05 14:32 | 48.98455 | 12.96487 | 40989 ft | 494 kts | 114° |
| 2026-05-05 14:32 | 48.95661 | 13.05991 | 40992 ft | 494 kts | 114° |
| 2026-05-05 14:33 | 48.92845 | 13.15530 | 40996 ft | 495 kts | 114° |
| 2026-05-05 14:33 | 48.90026 | 13.25045 | 41003 ft | 495 kts | 114° |
| 2026-05-05 14:34 | 48.87178 | 13.34618 | 41005 ft | 495 kts | 114° |
| 2026-05-05 14:34 | 48.84336 | 13.44132 | 41002 ft | 495 kts | 114° |
| 2026-05-05 14:35 | 48.81493 | 13.53615 | 41007 ft | 495 kts | 114° |
| 2026-05-05 14:35 | 48.78621 | 13.63158 | 41000 ft | 495 kts | 115° |
| 2026-05-05 14:36 | 48.75767 | 13.72632 | 40992 ft | 495 kts | 114° |
| 2026-05-05 14:36 | 48.73250 | 13.82371 | 40998 ft | 495 kts | 110° |
| 2026-05-05 14:37 | 48.70843 | 13.92098 | 40994 ft | 495 kts | 111° |
| 2026-05-05 14:37 | 48.68376 | 14.01793 | 40989 ft | 495 kts | 111° |
| 2026-05-05 14:38 | 48.65862 | 14.11533 | 40996 ft | 495 kts | 111° |
| 2026-05-05 14:38 | 48.63358 | 14.21187 | 40997 ft | 495 kts | 111° |
| 2026-05-05 14:39 | 48.60838 | 14.30864 | 41003 ft | 496 kts | 111° |
| 2026-05-05 14:39 | 48.58292 | 14.40600 | 41009 ft | 496 kts | 111° |
| 2026-05-05 14:40 | 48.55756 | 14.50256 | 41006 ft | 496 kts | 111° |
| 2026-05-05 14:40 | 48.53218 | 14.59884 | 41000 ft | 496 kts | 112° |
| 2026-05-05 14:41 | 48.50659 | 14.69546 | 40998 ft | 496 kts | 112° |
| 2026-05-05 14:41 | 48.48087 | 14.79217 | 40994 ft | 496 kts | 112° |
| 2026-05-05 14:42 | 48.45516 | 14.88847 | 40994 ft | 496 kts | 112° |
| 2026-05-05 14:42 | 48.42924 | 14.98514 | 40996 ft | 496 kts | 112° |
| 2026-05-05 14:43 | 48.40341 | 15.08109 | 40995 ft | 496 kts | 112° |
| 2026-05-05 14:43 | 48.37751 | 15.17691 | 40999 ft | 496 kts | 112° |
| 2026-05-05 14:44 | 48.35150 | 15.27274 | 41007 ft | 496 kts | 112° |
| 2026-05-05 14:44 | 48.32524 | 15.36907 | 41004 ft | 496 kts | 112° |
| 2026-05-05 14:45 | 48.30341 | 15.44886 | 41017 ft | 497 kts | 112° |
| 2026-05-05 14:45 | 48.27695 | 15.54521 | 41000 ft | 496 kts | 112° |
| 2026-05-05 14:46 | 48.25522 | 15.62432 | 40998 ft | 490 kts | 112° |
| 2026-05-05 14:46 | 48.23029 | 15.71994 | 41031 ft | 492 kts | 110° |
| 2026-05-05 14:47 | 48.20382 | 15.81406 | 41001 ft | 492 kts | 114° |
| 2026-05-05 14:47 | 48.17648 | 15.90835 | 40998 ft | 492 kts | 113° |
| 2026-05-05 14:48 | 48.15001 | 16.00205 | 41012 ft | 495 kts | 113° |
| 2026-05-05 14:48 | 48.12393 | 16.09489 | 41028 ft | 496 kts | 113° |
| 2026-05-05 14:49 | 48.09716 | 16.18981 | 41010 ft | 497 kts | 113° |
| 2026-05-05 14:49 | 48.07028 | 16.28471 | 41034 ft | 497 kts | 113° |
| 2026-05-05 14:50 | 48.04314 | 16.38014 | 41039 ft | 496 kts | 113° |
| 2026-05-05 14:50 | 48.01619 | 16.47455 | 41029 ft | 495 kts | 113° |
| 2026-05-05 14:51 | 47.98916 | 16.56884 | 41011 ft | 494 kts | 113° |
| 2026-05-05 14:51 | 47.96214 | 16.66274 | 41006 ft | 493 kts | 113° |
| 2026-05-05 14:52 | 47.93493 | 16.75695 | 41009 ft | 492 kts | 113° |
| 2026-05-05 14:52 | 47.90798 | 16.84988 | 41003 ft | 491 kts | 113° |
| 2026-05-05 14:53 | 47.88073 | 16.94350 | 40996 ft | 490 kts | 114° |
| 2026-05-05 14:53 | 47.85360 | 17.03638 | 40994 ft | 490 kts | 114° |
| 2026-05-05 14:54 | 47.82555 | 17.12843 | 40990 ft | 489 kts | 117° |
| 2026-05-05 14:54 | 47.79305 | 17.21709 | 40988 ft | 489 kts | 118° |
| 2026-05-05 14:55 | 47.76037 | 17.30623 | 40991 ft | 489 kts | 118° |
| 2026-05-05 14:55 | 47.72786 | 17.39493 | 40993 ft | 490 kts | 118° |
| 2026-05-05 14:56 | 47.69521 | 17.48353 | 40997 ft | 490 kts | 119° |
| 2026-05-05 14:56 | 47.66565 | 17.56341 | 41001 ft | 491 kts | 119° |
| 2026-05-05 14:57 | 47.63344 | 17.65015 | 41006 ft | 491 kts | 119° |
| 2026-05-05 14:57 | 47.60040 | 17.73881 | 41004 ft | 491 kts | 119° |
| 2026-05-05 14:58 | 47.56745 | 17.82696 | 41002 ft | 491 kts | 119° |
| 2026-05-05 14:58 | 47.53433 | 17.91528 | 41001 ft | 491 kts | 119° |
| 2026-05-05 14:59 | 47.50092 | 18.00406 | 41001 ft | 491 kts | 119° |
| 2026-05-05 14:59 | 47.46770 | 18.09205 | 40999 ft | 491 kts | 119° |
| 2026-05-05 15:00 | 47.43990 | 18.16547 | 40994 ft | 491 kts | 119° |
| 2026-05-05 15:00 | 47.40091 | 18.26810 | 40994 ft | 491 kts | 119° |
| 2026-05-05 15:01 | 47.36752 | 18.35568 | 40991 ft | 491 kts | 119° |
| 2026-05-05 15:01 | 47.33406 | 18.44315 | 41002 ft | 491 kts | 120° |
| 2026-05-05 15:02 | 47.30023 | 18.53129 | 41003 ft | 492 kts | 120° |
| 2026-05-05 15:02 | 47.26663 | 18.61857 | 40999 ft | 492 kts | 120° |
| 2026-05-05 15:03 | 47.23269 | 18.70642 | 41011 ft | 492 kts | 120° |
| 2026-05-05 15:03 | 47.19889 | 18.79363 | 41006 ft | 492 kts | 120° |
| 2026-05-05 15:04 | 47.16502 | 18.88076 | 41007 ft | 492 kts | 120° |
| 2026-05-05 15:04 | 47.13116 | 18.96758 | 41006 ft | 491 kts | 120° |
| 2026-05-05 15:05 | 47.08007 | 19.09804 | 41003 ft | 491 kts | 120° |
| 2026-05-05 15:06 | 47.04589 | 19.18496 | 41001 ft | 491 kts | 120° |
| 2026-05-05 15:06 | 47.01183 | 19.27133 | 41001 ft | 490 kts | 120° |
| 2026-05-05 15:07 | 46.97772 | 19.35751 | 40997 ft | 490 kts | 120° |
| 2026-05-05 15:07 | 46.94331 | 19.44420 | 40999 ft | 490 kts | 120° |
| 2026-05-05 15:08 | 46.90909 | 19.53013 | 40999 ft | 490 kts | 120° |
| 2026-05-05 15:08 | 46.87482 | 19.61594 | 40996 ft | 490 kts | 120° |
| 2026-05-05 15:09 | 46.84022 | 19.70227 | 40998 ft | 490 kts | 120° |
| 2026-05-05 15:09 | 46.80577 | 19.78797 | 41000 ft | 490 kts | 120° |
| 2026-05-05 15:10 | 46.77114 | 19.87384 | 41000 ft | 491 kts | 121° |
| 2026-05-05 15:10 | 46.73653 | 19.95938 | 41001 ft | 491 kts | 121° |
| 2026-05-05 15:11 | 46.70191 | 20.04471 | 41001 ft | 491 kts | 121° |
| 2026-05-05 15:11 | 46.66695 | 20.13060 | 41002 ft | 491 kts | 121° |
| 2026-05-05 15:12 | 46.63215 | 20.21581 | 41003 ft | 491 kts | 121° |
| 2026-05-05 15:12 | 46.59729 | 20.30091 | 41001 ft | 491 kts | 121° |
| 2026-05-05 15:13 | 46.56217 | 20.38639 | 41000 ft | 491 kts | 121° |
| 2026-05-05 15:13 | 46.52721 | 20.47122 | 41001 ft | 490 kts | 121° |
| 2026-05-05 15:14 | 46.49221 | 20.55588 | 41000 ft | 490 kts | 121° |
| 2026-05-05 15:14 | 46.45715 | 20.64042 | 40999 ft | 490 kts | 121° |
| 2026-05-05 15:15 | 46.42181 | 20.72539 | 41000 ft | 490 kts | 121° |
| 2026-05-05 15:15 | 46.38661 | 20.80975 | 40999 ft | 490 kts | 121° |
| 2026-05-05 15:16 | 46.35113 | 20.89452 | 40999 ft | 490 kts | 121° |
| 2026-05-05 15:16 | 46.31628 | 20.97757 | 40999 ft | 490 kts | 121° |
| 2026-05-05 15:17 | 46.28092 | 21.06168 | 40998 ft | 490 kts | 121° |
| 2026-05-05 15:17 | 46.24347 | 21.14431 | 40999 ft | 490 kts | 126° |
| 2026-05-05 15:18 | 46.20379 | 21.22429 | 41001 ft | 490 kts | 125° |
| 2026-05-05 15:18 | 46.16449 | 21.30420 | 40999 ft | 490 kts | 126° |
| 2026-05-05 15:19 | 46.12468 | 21.38456 | 40997 ft | 490 kts | 124° |
| 2026-05-05 15:19 | 46.08685 | 21.46599 | 40997 ft | 490 kts | 124° |
| 2026-05-05 15:20 | 46.04856 | 21.54706 | 40996 ft | 491 kts | 124° |
| 2026-05-05 15:20 | 46.00952 | 21.62811 | 40994 ft | 491 kts | 125° |
| 2026-05-05 15:21 | 45.97058 | 21.70848 | 41001 ft | 491 kts | 125° |
| 2026-05-05 15:21 | 45.93136 | 21.78921 | 40999 ft | 491 kts | 125° |
| 2026-05-05 15:22 | 45.89225 | 21.86941 | 41004 ft | 491 kts | 125° |
| 2026-05-05 15:22 | 45.85297 | 21.94967 | 41002 ft | 491 kts | 125° |
| 2026-05-05 15:23 | 45.81370 | 22.02966 | 41006 ft | 491 kts | 125° |
| 2026-05-05 15:23 | 45.77420 | 22.10988 | 41004 ft | 491 kts | 125° |
| 2026-05-05 15:24 | 45.73484 | 22.18962 | 40997 ft | 491 kts | 125° |
| 2026-05-05 15:24 | 45.69547 | 22.26914 | 40978 ft | 491 kts | 125° |
| 2026-05-05 15:25 | 45.65573 | 22.34918 | 40953 ft | 492 kts | 126° |
| 2026-05-05 15:25 | 45.61622 | 22.42853 | 40978 ft | 492 kts | 126° |
| 2026-05-05 15:26 | 45.57627 | 22.50855 | 40993 ft | 493 kts | 126° |
| 2026-05-05 15:26 | 45.53642 | 22.58811 | 40994 ft | 494 kts | 126° |
| 2026-05-05 15:27 | 45.49622 | 22.66817 | 41008 ft | 495 kts | 126° |
| 2026-05-05 15:27 | 45.45615 | 22.74776 | 40976 ft | 496 kts | 126° |
| 2026-05-05 15:28 | 45.41597 | 22.82733 | 40981 ft | 497 kts | 126° |
| 2026-05-05 15:28 | 45.38282 | 22.89282 | 40958 ft | 497 kts | 126° |
| 2026-05-05 15:29 | 45.34198 | 22.97329 | 40952 ft | 498 kts | 126° |
| 2026-05-05 15:29 | 45.30152 | 23.05278 | 41030 ft | 498 kts | 126° |
| 2026-05-05 15:30 | 45.26052 | 23.13310 | 41031 ft | 500 kts | 126° |
| 2026-05-05 15:30 | 45.21971 | 23.21285 | 41047 ft | 501 kts | 126° |
| 2026-05-05 15:31 | 45.17884 | 23.29248 | 41047 ft | 501 kts | 126° |
| 2026-05-05 15:31 | 45.14474 | 23.35874 | 41000 ft | 494 kts | 126° |
| 2026-05-05 15:32 | 45.09771 | 23.44990 | 41001 ft | 491 kts | 126° |
| 2026-05-05 15:32 | 45.05735 | 23.52789 | 41000 ft | 493 kts | 126° |
| 2026-05-05 15:33 | 45.02355 | 23.59303 | 41001 ft | 492 kts | 126° |
| 2026-05-05 15:33 | 44.98282 | 23.67135 | 41004 ft | 493 kts | 126° |
| 2026-05-05 15:34 | 44.94229 | 23.74906 | 41000 ft | 492 kts | 126° |
| 2026-05-05 15:34 | 44.90172 | 23.82664 | 40997 ft | 492 kts | 127° |
| 2026-05-05 15:35 | 44.86097 | 23.90434 | 40994 ft | 491 kts | 127° |
| 2026-05-05 15:35 | 44.82045 | 23.98140 | 40991 ft | 491 kts | 127° |
| 2026-05-05 15:36 | 44.77984 | 24.05844 | 40992 ft | 491 kts | 127° |
| 2026-05-05 15:36 | 44.73915 | 24.13540 | 40992 ft | 491 kts | 127° |
| 2026-05-05 15:37 | 44.69820 | 24.21267 | 40992 ft | 491 kts | 127° |
| 2026-05-05 15:37 | 44.65752 | 24.28922 | 41004 ft | 491 kts | 127° |
| 2026-05-05 15:38 | 44.61641 | 24.36637 | 41001 ft | 491 kts | 127° |
| 2026-05-05 15:38 | 44.57553 | 24.44288 | 41002 ft | 491 kts | 127° |
| 2026-05-05 15:39 | 44.53434 | 24.51976 | 41004 ft | 492 kts | 127° |
| 2026-05-05 15:39 | 44.49339 | 24.59600 | 41003 ft | 491 kts | 127° |
| 2026-05-05 15:40 | 44.45208 | 24.67271 | 41004 ft | 491 kts | 127° |
| 2026-05-05 15:40 | 44.41095 | 24.74886 | 41009 ft | 491 kts | 127° |
| 2026-05-05 15:41 | 44.36980 | 24.82487 | 41003 ft | 491 kts | 127° |
| 2026-05-05 15:41 | 44.32863 | 24.90070 | 41006 ft | 491 kts | 127° |
| 2026-05-05 15:42 | 44.28714 | 24.97694 | 41003 ft | 491 kts | 127° |
| 2026-05-05 15:42 | 44.24593 | 25.05245 | 41002 ft | 491 kts | 127° |
| 2026-05-05 15:43 | 44.20433 | 25.12847 | 41002 ft | 491 kts | 127° |
| 2026-05-05 15:43 | 44.16304 | 25.20376 | 41000 ft | 490 kts | 127° |
| 2026-05-05 15:44 | 44.12166 | 25.27899 | 41001 ft | 490 kts | 127° |
| 2026-05-05 15:44 | 44.08024 | 25.35410 | 41003 ft | 490 kts | 128° |
| 2026-05-05 15:45 | 44.03853 | 25.42955 | 41000 ft | 490 kts | 128° |
| 2026-05-05 15:45 | 43.99704 | 25.50440 | 41000 ft | 490 kts | 128° |
| 2026-05-05 15:46 | 43.95542 | 25.57929 | 41001 ft | 490 kts | 128° |
| 2026-05-05 15:46 | 43.91379 | 25.65400 | 41004 ft | 490 kts | 128° |
| 2026-05-05 15:47 | 43.87196 | 25.72890 | 41002 ft | 490 kts | 128° |
| 2026-05-05 15:47 | 43.82999 | 25.80383 | 41008 ft | 490 kts | 128° |
| 2026-05-05 15:48 | 43.78824 | 25.87820 | 41004 ft | 490 kts | 128° |
| 2026-05-05 15:48 | 43.74649 | 25.95237 | 40999 ft | 490 kts | 128° |
| 2026-05-05 15:49 | 43.70463 | 26.02655 | 40997 ft | 490 kts | 128° |
| 2026-05-05 15:49 | 43.66243 | 26.10114 | 40993 ft | 490 kts | 128° |
| 2026-05-05 15:50 | 43.62051 | 26.17504 | 40991 ft | 490 kts | 128° |
| 2026-05-05 15:50 | 43.57851 | 26.24890 | 40993 ft | 490 kts | 128° |
| 2026-05-05 15:51 | 43.53621 | 26.32310 | 40989 ft | 491 kts | 128° |
| 2026-05-05 15:51 | 43.49413 | 26.39671 | 40991 ft | 491 kts | 128° |
| 2026-05-05 15:52 | 43.45163 | 26.47090 | 40995 ft | 491 kts | 128° |
| 2026-05-05 15:52 | 43.40945 | 26.54433 | 40995 ft | 492 kts | 128° |
| 2026-05-05 15:53 | 43.36706 | 26.61793 | 41002 ft | 492 kts | 128° |
| 2026-05-05 15:53 | 43.32437 | 26.69189 | 41007 ft | 492 kts | 128° |
| 2026-05-05 15:54 | 43.28187 | 26.76532 | 41012 ft | 493 kts | 128° |
| 2026-05-05 15:54 | 43.23896 | 26.83926 | 41009 ft | 493 kts | 129° |
| 2026-05-05 15:55 | 43.19638 | 26.91247 | 41012 ft | 492 kts | 129° |
| 2026-05-05 15:55 | 43.15373 | 26.98560 | 41012 ft | 492 kts | 129° |
| 2026-05-05 15:56 | 43.11111 | 27.05852 | 41007 ft | 491 kts | 129° |
| 2026-05-05 15:56 | 43.06825 | 27.13165 | 41006 ft | 491 kts | 129° |
| 2026-05-05 15:57 | 43.02561 | 27.20422 | 41004 ft | 491 kts | 129° |
| 2026-05-05 15:57 | 42.98265 | 27.27717 | 40992 ft | 491 kts | 129° |
| 2026-05-05 15:58 | 42.93996 | 27.34947 | 40991 ft | 490 kts | 129° |
| 2026-05-05 15:58 | 42.89726 | 27.42162 | 40992 ft | 490 kts | 129° |
| 2026-05-05 15:59 | 42.85419 | 27.49421 | 40984 ft | 490 kts | 129° |
| 2026-05-05 15:59 | 42.81139 | 27.56617 | 40984 ft | 490 kts | 129° |
| 2026-05-05 16:00 | 42.76854 | 27.63805 | 40999 ft | 491 kts | 129° |
| 2026-05-05 16:00 | 42.72528 | 27.71044 | 41011 ft | 491 kts | 129° |
| 2026-05-05 16:01 | 42.68218 | 27.78237 | 41012 ft | 492 kts | 129° |
| 2026-05-05 16:01 | 42.63901 | 27.85425 | 41029 ft | 491 kts | 129° |
| 2026-05-05 16:02 | 42.59584 | 27.92596 | 41013 ft | 491 kts | 129° |
| 2026-05-05 16:02 | 42.55243 | 27.99788 | 41010 ft | 491 kts | 129° |
| 2026-05-05 16:03 | 42.50927 | 28.06922 | 41005 ft | 490 kts | 129° |
| 2026-05-05 16:03 | 42.46586 | 28.14081 | 41001 ft | 490 kts | 129° |
| 2026-05-05 16:04 | 42.42272 | 28.21177 | 40997 ft | 489 kts | 129° |
| 2026-05-05 16:04 | 42.37965 | 28.28246 | 40586 ft | 487 kts | 129° |
| 2026-05-05 16:04 | 42.35795 | 28.31801 | 39863 ft | 489 kts | 129° |
| 2026-05-05 16:05 | 42.33616 | 28.35367 | 38958 ft | 493 kts | 129° |
| 2026-05-05 16:05 | 42.31443 | 28.38917 | 38006 ft | 497 kts | 130° |
| 2026-05-05 16:05 | 42.29226 | 28.42536 | 37122 ft | 498 kts | 130° |
| 2026-05-05 16:05 | 42.27017 | 28.46138 | 36240 ft | 498 kts | 130° |
| 2026-05-05 16:06 | 42.24799 | 28.49752 | 35302 ft | 498 kts | 130° |
| 2026-05-05 16:06 | 42.22607 | 28.53322 | 34316 ft | 499 kts | 130° |
| 2026-05-05 16:06 | 42.20375 | 28.56954 | 33190 ft | 501 kts | 130° |
| 2026-05-05 16:06 | 42.18168 | 28.60540 | 32311 ft | 499 kts | 130° |
| 2026-05-05 16:07 | 42.15955 | 28.64132 | 31558 ft | 493 kts | 130° |
| 2026-05-05 16:07 | 42.13716 | 28.67533 | 30808 ft | 487 kts | 136° |
| 2026-05-05 16:07 | 42.11062 | 28.70338 | 30071 ft | 481 kts | 148° |
| 2026-05-05 16:07 | 42.08080 | 28.72351 | 29312 ft | 474 kts | 160° |
| 2026-05-05 16:08 | 42.04920 | 28.73521 | 28319 ft | 468 kts | 172° |
| 2026-05-05 16:08 | 42.01751 | 28.73752 | 27674 ft | 454 kts | 185° |
| 2026-05-05 16:08 | 41.98696 | 28.73062 | 27320 ft | 437 kts | 196° |
| 2026-05-05 16:08 | 41.95863 | 28.71620 | 26582 ft | 434 kts | 204° |
| 2026-05-05 16:09 | 41.93103 | 28.69908 | 25727 ft | 435 kts | 205° |
| 2026-05-05 16:09 | 41.90375 | 28.68288 | 25197 ft | 428 kts | 203° |
| 2026-05-05 16:09 | 41.87629 | 28.66795 | 24636 ft | 422 kts | 201° |
| 2026-05-05 16:09 | 41.84895 | 28.65408 | 24017 ft | 417 kts | 200° |
| 2026-05-05 16:10 | 41.82171 | 28.64081 | 23376 ft | 414 kts | 200° |
| 2026-05-05 16:10 | 41.79496 | 28.62799 | 22748 ft | 410 kts | 200° |
| 2026-05-05 16:10 | 41.76812 | 28.61521 | 22115 ft | 406 kts | 200° |
| 2026-05-05 16:10 | 41.74156 | 28.60256 | 21486 ft | 402 kts | 200° |
| 2026-05-05 16:11 | 41.71566 | 28.59023 | 20969 ft | 396 kts | 200° |
| 2026-05-05 16:11 | 41.63896 | 28.55370 | 20196 ft | 388 kts | 200° |
| 2026-05-05 16:12 | 41.61350 | 28.54160 | 19944 ft | 387 kts | 200° |
| 2026-05-05 16:12 | 41.56313 | 28.51767 | 19446 ft | 384 kts | 200° |
| 2026-05-05 16:13 | 41.48817 | 28.48214 | 18690 ft | 379 kts | 200° |
| 2026-05-05 16:13 | 41.46329 | 28.47036 | 18447 ft | 378 kts | 200° |
| 2026-05-05 16:13 | 41.43846 | 28.45862 | 18204 ft | 376 kts | 200° |
| 2026-05-05 16:14 | 41.38935 | 28.43543 | 17699 ft | 374 kts | 200° |
| 2026-05-05 16:14 | 41.34063 | 28.41246 | 17002 ft | 373 kts | 200° |
| 2026-05-05 16:15 | 41.29174 | 28.38944 | 15791 ft | 368 kts | 200° |
| 2026-05-05 16:15 | 41.24401 | 28.36700 | 14615 ft | 361 kts | 200° |
| 2026-05-05 16:16 | 41.19554 | 28.35177 | 12716 ft | 366 kts | 178° |
| 2026-05-05 16:16 | 41.14538 | 28.36119 | 10780 ft | 361 kts | 171° |
| 2026-05-05 16:17 | 41.09745 | 28.37017 | 9920 ft | 327 kts | 173° |
| 2026-05-05 16:17 | 41.07569 | 28.37342 | 9726 ft | 307 kts | 174° |
| 2026-05-05 16:18 | 41.03497 | 28.37893 | 8861 ft | 289 kts | 175° |
| 2026-05-05 16:18 | 41.01524 | 28.38203 | 8201 ft | 287 kts | 166° |
| 2026-05-05 16:18 | 40.98907 | 28.40654 | 7754 ft | 281 kts | 121° |
| 2026-05-05 16:19 | 40.98216 | 28.43924 | 7361 ft | 280 kts | 86° |
| 2026-05-05 16:19 | 40.98412 | 28.45635 | 7134 ft | 276 kts | 77° |
| 2026-05-05 16:19 | 40.99317 | 28.50525 | 6270 ft | 277 kts | 76° |
| 2026-05-05 16:20 | 41.00141 | 28.55450 | 5282 ft | 273 kts | 78° |
| 2026-05-05 16:20 | 41.00881 | 28.60256 | 4893 ft | 254 kts | 78° |
| 2026-05-05 16:21 | 41.01520 | 28.64477 | 4930 ft | 217 kts | 78° |
| 2026-05-05 16:22 | 41.02356 | 28.69988 | 4916 ft | 199 kts | 78° |
| 2026-05-05 16:22 | 41.03548 | 28.73117 | 4509 ft | 197 kts | 29° |
| 2026-05-05 16:23 | 41.06189 | 28.73422 | 4111 ft | 194 kts | 354° |
| 2026-05-05 16:23 | 41.07541 | 28.73267 | 3942 ft | 192 kts | 355° |
| 2026-05-05 16:23 | 41.10080 | 28.73089 | 3506 ft | 166 kts | 358° |
| 2026-05-05 16:24 | 41.11168 | 28.73119 | 3291 ft | 146 kts | 2° |
| 2026-05-05 16:24 | 41.12139 | 28.73214 | 3033 ft | 136 kts | 2° |
| 2026-05-05 16:24 | 41.14003 | 28.73057 | 2485 ft | 135 kts | 353° |
| 2026-05-05 16:25 | 41.14945 | 28.72971 | 2192 ft | 134 kts | 360° |
| 2026-05-05 16:25 | 41.16833 | 28.72943 | 1837 ft | 134 kts | 358° |
| 2026-05-05 16:25 | 41.17741 | 28.72932 | 1554 ft | 129 kts | 359° |
| 2026-05-05 16:26 | 41.19538 | 28.72922 | 1322 ft | 133 kts | 359° |
| 2026-05-05 16:26 | 41.21399 | 28.72881 | 1149 ft | 134 kts | 359° |
| 2026-05-05 16:27 | 41.22334 | 28.72861 | 1029 ft | 134 kts | 357° |
| 2026-05-05 16:27 | 41.23271 | 28.72860 | 893 ft | 134 kts | 357° |
| 2026-05-05 16:27 | 41.24191 | 28.72817 | 739 ft | 134 kts | 358° |
| 2026-05-05 16:27 | 41.25125 | 28.72791 | 593 ft | 137 kts | 358° |
| 2026-05-05 16:28 | 41.26034 | 28.72766 | 420 ft | 128 kts | 359° |
| 2026-05-05 16:28 | 41.26906 | 28.72749 | 335 ft | 108 kts | 1° |
| 2026-05-05 16:28 | 41.27488 | 28.72748 | 335 ft | 62 kts | 359° |
| 2026-05-05 16:28 | 41.27851 | 28.72744 | 337 ft | 45 kts | 4° |
| 2026-05-05 16:29 | 41.28092 | 28.72849 | 338 ft | 20 kts | 30° |
| 2026-05-05 16:29 | 41.28114 | 28.72867 | 338 ft | 5 kts | 35° |
| 2026-05-05 16:29 | 41.28133 | 28.72918 | 335 ft | 7 kts | 112° |
| 2026-05-05 16:29 | 41.28086 | 28.72960 | 336 ft | 12 kts | 178° |
| 2026-05-05 16:30 | 41.27965 | 28.72964 | 334 ft | 23 kts | 178° |
| 2026-05-05 16:30 | 41.27792 | 28.72970 | 334 ft | 25 kts | 179° |
| 2026-05-05 16:30 | 41.27614 | 28.72973 | 337 ft | 26 kts | 179° |
| 2026-05-05 16:30 | 41.27432 | 28.72975 | 337 ft | 26 kts | 179° |
| 2026-05-05 16:31 | 41.27248 | 28.72982 | 336 ft | 27 kts | 179° |
| 2026-05-05 16:31 | 41.27146 | 28.72984 | 334 ft | 4 kts | 179° |
| 2026-05-05 16:31 | 41.27096 | 28.72985 | 336 ft | 9 kts | 179° |
| 2026-05-05 16:31 | 41.27092 | 28.72985 | 337 ft | 0 kts | 179° |
| 2026-05-05 16:32 | 41.27083 | 28.72985 | 337 ft | 6 kts | 179° |
| 2026-05-05 16:32 | 41.26992 | 28.72992 | 336 ft | 9 kts | 159° |
| 2026-05-05 16:32 | 41.26955 | 28.73074 | 337 ft | 14 kts | 92° |
| 2026-05-05 16:33 | 41.26956 | 28.73233 | 335 ft | 20 kts | 87° |
| 2026-05-05 16:33 | 41.26960 | 28.73440 | 339 ft | 25 kts | 92° |
| 2026-05-05 16:33 | 41.26959 | 28.73687 | 336 ft | 29 kts | 89° |
| 2026-05-05 16:33 | 41.26962 | 28.73827 | 339 ft | 1 kts | 111° |
| 2026-05-05 16:34 | 41.26938 | 28.73862 | 336 ft | 8 kts | 156° |
| 2026-05-05 16:34 | 41.26861 | 28.73871 | 335 ft | 15 kts | 177° |
| 2026-05-05 16:34 | 41.26797 | 28.73835 | 335 ft | 7 kts | 249° |
| 2026-05-05 16:34 | 41.26793 | 28.73775 | 336 ft | 6 kts | 268° |
| 2026-05-05 16:35 | 41.26792 | 28.73771 | 336 ft | 0 kts | 268° |